createdAt,value
2022-12-05T00:01:22.918Z,1.93
2022-12-05T00:03:52.616Z,1.94
2022-12-05T00:06:20.849Z,1.94
2022-12-05T00:08:48.538Z,1.93
2022-12-05T00:11:37.039Z,1.95
2022-12-05T00:14:05.499Z,1.96
2022-12-05T00:16:35.464Z,1.97
2022-12-05T00:19:04.775Z,1.96
2022-12-05T00:21:34.035Z,1.97
2022-12-05T00:24:02.910Z,2.01
2022-12-05T00:26:30.921Z,2.04
2022-12-05T00:28:58.164Z,2.05
2022-12-05T00:31:26.281Z,2.05
2022-12-05T00:33:54.041Z,2.06
2022-12-05T00:36:23.606Z,2.07
2022-12-05T00:38:51.516Z,2.05
2022-12-05T00:41:22.881Z,2.04
2022-12-05T00:43:51.167Z,2.04
2022-12-05T00:46:23.643Z,2.03
2022-12-05T00:48:53.069Z,2.03
2022-12-05T00:51:32.543Z,2.00
2022-12-05T00:54:02.297Z,2.00
2022-12-05T00:56:31.126Z,2.01
2022-12-05T00:59:00.008Z,2.03
2022-12-05T01:01:33.374Z,2.05
2022-12-05T01:04:05.875Z,2.05
2022-12-05T01:06:33.413Z,2.02
2022-12-05T01:09:00.748Z,2.01
2022-12-05T01:11:28.559Z,2.00
2022-12-05T01:13:56.777Z,2.02
2022-12-05T01:16:30.983Z,2.04
2022-12-05T01:19:00.704Z,2.07
2022-12-05T01:21:27.827Z,2.08
2022-12-05T01:23:55.045Z,2.08
2022-12-05T01:26:23.183Z,2.08
2022-12-05T01:28:51.376Z,2.08
2022-12-05T01:31:23.474Z,2.08
2022-12-05T01:33:51.365Z,2.08
2022-12-05T01:36:18.635Z,2.08
2022-12-05T01:38:46.003Z,2.08
2022-12-05T01:41:17.189Z,2.07
2022-12-05T01:43:54.908Z,2.07
2022-12-05T01:46:22.338Z,2.09
2022-12-05T01:48:51.382Z,2.10
2022-12-05T01:51:19.455Z,2.12
2022-12-05T01:53:46.577Z,2.13
2022-12-05T01:56:14.019Z,2.13
2022-12-05T01:58:43.301Z,2.12
2022-12-05T02:01:14.029Z,2.12
2022-12-05T02:03:43.095Z,2.12
2022-12-05T02:06:11.877Z,2.14
2022-12-05T02:08:39.808Z,2.14
2022-12-05T02:11:08.336Z,2.15
2022-12-05T02:13:47.142Z,2.16
2022-12-05T02:16:20.192Z,2.20
2022-12-05T02:19:08.307Z,2.21
2022-12-05T02:21:45.436Z,2.25
2022-12-05T02:24:28.704Z,2.26
2022-12-05T02:27:02.186Z,2.27
2022-12-05T02:29:47.696Z,2.26
2022-12-05T02:32:30.454Z,2.23
2022-12-05T02:35:10.066Z,2.23
2022-12-05T02:38:17.267Z,2.25
2022-12-05T02:41:15.869Z,2.21
2022-12-05T02:44:07.433Z,2.18
2022-12-05T02:46:37.596Z,2.13
2022-12-05T02:49:10.706Z,2.13
2022-12-05T02:51:43.860Z,2.11
2022-12-05T02:54:15.962Z,2.09
2022-12-05T02:56:45.820Z,2.09
2022-12-05T02:59:12.806Z,2.08
2022-12-05T03:01:39.836Z,2.07
2022-12-05T03:04:10.438Z,2.05
2022-12-05T03:06:46.464Z,2.04
2022-12-05T03:09:19.612Z,2.03
2022-12-05T03:12:01.581Z,2.04
2022-12-05T03:14:33.704Z,2.05
2022-12-05T03:17:07.342Z,2.05
2022-12-05T03:20:11.510Z,2.03
2022-12-05T03:22:43.292Z,2.00
2022-12-05T03:25:11.457Z,1.98
2022-12-05T03:28:06.105Z,1.97
2022-12-05T03:30:37.518Z,1.98
2022-12-05T03:33:29.337Z,1.97
2022-12-05T03:35:58.850Z,1.96
2022-12-05T03:38:29.355Z,1.94
2022-12-05T03:41:26.649Z,1.93
2022-12-05T03:44:28.190Z,1.93
2022-12-05T03:47:10.837Z,1.96
2022-12-05T03:49:44.439Z,1.98
2022-12-05T03:52:26.847Z,1.92
2022-12-05T03:54:59.858Z,1.84
2022-12-05T03:57:36.071Z,1.79
2022-12-05T04:00:23.807Z,1.79
2022-12-05T04:03:03.055Z,1.79
2022-12-05T04:05:36.020Z,1.82
2022-12-05T04:08:10.015Z,1.83
2022-12-05T04:10:50.017Z,1.83
2022-12-05T04:13:34.405Z,1.81
2022-12-05T04:16:25.417Z,1.82
2022-12-05T04:19:19.343Z,1.85
2022-12-05T04:21:51.740Z,1.88
2022-12-05T04:24:46.833Z,1.88
2022-12-05T04:27:27.897Z,1.87
2022-12-05T04:30:20.445Z,1.87
2022-12-05T04:33:06.091Z,1.86
2022-12-05T04:35:59.448Z,1.89
2022-12-05T04:38:44.321Z,1.90
2022-12-05T04:41:17.286Z,1.93
2022-12-05T04:43:47.004Z,1.92
2022-12-05T04:46:18.487Z,1.91
2022-12-05T04:48:52.122Z,1.89
2022-12-05T04:51:24.223Z,1.87
2022-12-05T04:54:00.179Z,1.87
2022-12-05T04:56:31.019Z,1.88
2022-12-05T04:58:58.301Z,1.90
2022-12-05T05:01:40.852Z,1.90
2022-12-05T05:04:23.210Z,1.88
2022-12-05T05:06:50.257Z,1.86
2022-12-05T05:09:17.101Z,1.88
2022-12-05T05:11:44.040Z,1.89
2022-12-05T05:14:11.061Z,1.90
2022-12-05T05:16:40.440Z,1.91
2022-12-05T05:19:10.405Z,1.93
2022-12-05T05:21:38.720Z,1.94
2022-12-05T05:24:07.437Z,1.93
2022-12-05T05:26:36.588Z,1.95
2022-12-05T05:29:04.087Z,1.98
2022-12-05T05:31:31.823Z,2.00
2022-12-05T05:34:01.214Z,2.02
2022-12-05T05:36:30.616Z,2.02
2022-12-05T05:39:00.187Z,2.01
2022-12-05T05:41:28.886Z,2.01
2022-12-05T05:43:56.930Z,2.03
2022-12-05T05:46:26.908Z,2.06
2022-12-05T05:48:54.226Z,2.08
2022-12-05T05:51:21.972Z,2.10
2022-12-05T05:53:49.289Z,2.10
2022-12-05T05:56:21.815Z,2.09
2022-12-05T05:58:55.120Z,2.08
2022-12-05T06:01:22.327Z,2.09
2022-12-05T06:03:52.525Z,2.11
2022-12-05T06:06:20.720Z,2.11
2022-12-05T06:08:48.048Z,2.11
2022-12-05T06:11:25.933Z,2.09
2022-12-05T06:13:55.514Z,2.10
2022-12-05T06:16:23.691Z,2.10
2022-12-05T06:18:51.267Z,2.09
2022-12-05T06:21:18.517Z,2.10
2022-12-05T06:23:45.547Z,2.11
2022-12-05T06:26:14.588Z,2.11
2022-12-05T06:28:42.098Z,2.11
2022-12-05T06:31:21.620Z,2.14
2022-12-05T06:33:48.664Z,2.16
2022-12-05T06:36:18.782Z,2.15
2022-12-05T06:38:45.892Z,2.13
2022-12-05T06:41:19.040Z,2.09
2022-12-05T06:43:46.348Z,2.07
2022-12-05T06:46:15.267Z,2.04
2022-12-05T06:48:42.284Z,2.01
2022-12-05T06:51:11.578Z,2.00
2022-12-05T06:53:39.473Z,2.00
2022-12-05T06:56:15.906Z,2.00
2022-12-05T06:58:44.732Z,2.00
2022-12-05T07:01:36.382Z,1.98
2022-12-05T07:04:05.554Z,1.97
2022-12-05T07:06:34.055Z,1.94
2022-12-05T07:09:01.370Z,1.89
2022-12-05T07:11:28.405Z,1.90
2022-12-05T07:13:55.728Z,1.89
2022-12-05T07:16:23.040Z,1.89
2022-12-05T07:18:50.011Z,1.89
2022-12-05T07:21:18.179Z,1.90
2022-12-05T07:23:48.163Z,1.91
2022-12-05T07:26:20.993Z,1.94
2022-12-05T07:28:48.907Z,1.95
2022-12-05T07:31:22.141Z,1.94
2022-12-05T07:33:50.017Z,1.94
2022-12-05T07:36:20.091Z,1.94
2022-12-05T07:38:47.338Z,1.97
2022-12-05T07:41:24.575Z,2.00
2022-12-05T07:43:53.125Z,1.94
2022-12-05T07:46:20.848Z,1.93
2022-12-05T07:48:50.168Z,1.93
2022-12-05T07:51:18.149Z,1.88
2022-12-05T07:53:45.605Z,1.77
2022-12-05T07:56:16.616Z,1.76
2022-12-05T07:58:45.400Z,1.80
2022-12-05T08:01:24.559Z,1.83
2022-12-05T08:03:57.345Z,1.88
2022-12-05T08:06:29.809Z,1.93
2022-12-05T08:08:57.267Z,1.95
2022-12-05T08:11:26.949Z,1.97
2022-12-05T08:13:54.595Z,1.99
2022-12-05T08:16:24.489Z,2.01
2022-12-05T08:18:58.836Z,2.02
2022-12-05T08:21:26.287Z,1.99
2022-12-05T08:23:53.331Z,1.98
2022-12-05T08:26:29.405Z,1.99
2022-12-05T08:28:59.968Z,2.00
2022-12-05T08:31:29.285Z,2.02
2022-12-05T08:33:59.279Z,2.07
2022-12-05T08:36:29.082Z,2.08
2022-12-05T08:38:57.928Z,2.10
2022-12-05T08:41:29.585Z,2.09
2022-12-05T08:43:59.005Z,2.10
2022-12-05T08:46:26.216Z,2.12
2022-12-05T08:48:53.284Z,2.15
2022-12-05T08:51:20.626Z,2.18
2022-12-05T08:53:47.586Z,2.20
2022-12-05T08:56:14.630Z,2.22
2022-12-05T08:58:41.861Z,2.22
2022-12-05T09:01:16.870Z,2.21
2022-12-05T09:03:47.768Z,2.21
2022-12-05T09:06:21.856Z,2.23
2022-12-05T09:08:53.541Z,2.26
2022-12-05T09:11:27.417Z,2.28
2022-12-05T09:13:57.131Z,2.29
2022-12-05T09:16:32.296Z,2.29
2022-12-05T09:19:04.529Z,2.29
2022-12-05T09:21:31.901Z,2.29
2022-12-05T09:23:59.599Z,2.29
2022-12-05T09:26:28.293Z,2.32
2022-12-05T09:28:55.863Z,2.35
2022-12-05T09:31:26.364Z,2.37
2022-12-05T09:33:53.756Z,2.37
2022-12-05T09:36:26.584Z,2.36
2022-12-05T09:38:55.118Z,2.36
2022-12-05T09:41:50.280Z,2.37
2022-12-05T09:44:47.976Z,2.39
2022-12-05T09:47:28.897Z,2.41
2022-12-05T09:50:12.090Z,2.42
2022-12-05T09:52:43.145Z,2.39
2022-12-05T09:55:20.339Z,2.36
2022-12-05T09:57:52.549Z,2.36
2022-12-05T10:00:19.844Z,2.38
2022-12-05T10:03:20.734Z,2.41
2022-12-05T10:06:09.576Z,2.44
2022-12-05T10:09:01.985Z,2.46
2022-12-05T10:11:52.360Z,2.47
2022-12-05T10:14:19.350Z,2.45
2022-12-05T10:16:51.938Z,2.46
2022-12-05T10:19:23.476Z,2.46
2022-12-05T10:22:04.231Z,2.47
2022-12-05T10:24:45.055Z,2.47
2022-12-05T10:27:19.728Z,2.46
2022-12-05T10:30:06.228Z,2.44
2022-12-05T10:32:42.681Z,2.44
2022-12-05T10:35:23.962Z,2.44
2022-12-05T10:37:58.023Z,2.45
2022-12-05T10:40:36.128Z,2.49
2022-12-05T10:43:08.410Z,2.52
2022-12-05T10:45:47.300Z,2.52
2022-12-05T10:48:18.742Z,2.52
2022-12-05T10:50:48.776Z,2.52
2022-12-05T10:53:17.352Z,2.53
2022-12-05T10:56:06.326Z,2.53
2022-12-05T10:58:33.648Z,2.55
2022-12-05T11:01:15.378Z,2.56
2022-12-05T11:03:43.242Z,2.56
2022-12-05T11:06:28.211Z,2.55
2022-12-05T11:09:06.143Z,2.57
2022-12-05T11:11:34.131Z,2.57
2022-12-05T11:14:06.855Z,2.58
2022-12-05T11:16:38.988Z,2.59
2022-12-05T11:19:21.334Z,2.60
2022-12-05T11:21:49.860Z,2.60
2022-12-05T11:24:37.875Z,2.61
2022-12-05T11:27:16.734Z,2.63
2022-12-05T11:29:53.432Z,2.64
2022-12-05T11:32:23.229Z,2.65
2022-12-05T11:34:54.180Z,2.66
2022-12-05T11:37:29.482Z,2.66
2022-12-05T11:39:56.569Z,2.67
2022-12-05T11:42:56.827Z,2.68
2022-12-05T11:46:13.721Z,2.71
2022-12-05T11:48:40.974Z,2.73
2022-12-05T11:51:28.710Z,2.75
2022-12-05T11:54:07.880Z,2.75
2022-12-05T11:56:43.342Z,2.73
2022-12-05T11:59:10.241Z,2.73
2022-12-05T12:01:51.289Z,2.70
2022-12-05T12:04:42.443Z,2.70
2022-12-05T12:07:15.188Z,2.69
2022-12-05T12:09:54.788Z,2.66
2022-12-05T12:12:40.380Z,2.63
2022-12-05T12:15:51.851Z,2.60
2022-12-05T12:18:52.656Z,2.60
2022-12-05T12:21:42.078Z,2.59
2022-12-05T12:24:30.542Z,2.57
2022-12-05T12:27:16.983Z,2.56
2022-12-05T12:29:44.005Z,2.53
2022-12-05T12:32:28.692Z,2.52
2022-12-05T12:35:13.518Z,2.51
2022-12-05T12:37:58.314Z,2.54
2022-12-05T12:40:46.242Z,2.56
2022-12-05T12:43:52.203Z,2.56
2022-12-05T12:46:14.875Z,2.56
2022-12-05T12:49:00.377Z,2.56
2022-12-05T12:51:30.903Z,2.57
2022-12-05T12:54:00.845Z,2.59
2022-12-05T12:56:50.667Z,2.62
2022-12-05T12:59:26.066Z,2.64
2022-12-05T13:01:59.933Z,2.63
2022-12-05T13:04:41.479Z,2.62
2022-12-05T13:07:14.597Z,2.61
2022-12-05T13:09:51.683Z,2.62
2022-12-05T13:12:30.516Z,2.62
2022-12-05T13:15:22.656Z,2.63
2022-12-05T13:17:51.291Z,2.62
2022-12-05T13:20:21.823Z,2.61
2022-12-05T13:22:51.452Z,2.61
2022-12-05T13:25:24.013Z,2.62
2022-12-05T13:28:00.914Z,2.64
2022-12-05T13:30:28.974Z,2.66
2022-12-05T13:33:09.642Z,2.67
2022-12-05T13:35:57.075Z,2.69
2022-12-05T13:38:52.993Z,2.68
2022-12-05T13:41:38.373Z,2.67
2022-12-05T13:44:11.876Z,2.67
2022-12-05T13:46:42.763Z,2.65
2022-12-05T13:49:35.766Z,2.65
2022-12-05T13:52:18.635Z,2.63
2022-12-05T13:55:10.888Z,2.61
2022-12-05T13:57:37.860Z,2.59
2022-12-05T14:00:07.440Z,2.58
2022-12-05T14:02:45.551Z,2.59
2022-12-05T14:05:13.806Z,2.58
2022-12-05T14:07:44.318Z,2.56
2022-12-05T14:10:20.385Z,2.57
2022-12-05T14:12:57.485Z,2.55
2022-12-05T14:15:42.469Z,2.53
2022-12-05T14:18:48.090Z,2.53
2022-12-05T14:21:24.011Z,2.53
2022-12-05T14:24:08.847Z,2.53
2022-12-05T14:26:44.600Z,2.54
2022-12-05T14:29:58.000Z,2.55
2022-12-05T14:32:30.965Z,2.55
2022-12-05T14:35:00.618Z,2.56
2022-12-05T14:37:44.352Z,2.56
2022-12-05T14:40:34.605Z,2.57
2022-12-05T14:43:16.752Z,2.58
2022-12-05T14:45:50.113Z,2.64
2022-12-05T14:48:16.999Z,2.71
2022-12-05T14:50:49.544Z,2.76
2022-12-05T14:53:30.133Z,2.79
2022-12-05T14:56:00.060Z,2.77
2022-12-05T14:58:30.150Z,2.79
2022-12-05T15:01:01.282Z,2.77
2022-12-05T15:03:37.972Z,2.76
2022-12-05T15:06:14.900Z,2.73
2022-12-05T15:08:48.389Z,2.73
2022-12-05T15:11:28.772Z,2.74
2022-12-05T15:14:08.307Z,2.75
2022-12-05T15:16:43.234Z,2.75
2022-12-05T15:19:21.837Z,2.72
2022-12-05T15:21:56.088Z,2.69
2022-12-05T15:24:23.359Z,2.68
2022-12-05T15:26:58.297Z,2.69
2022-12-05T15:29:33.297Z,2.71
2022-12-05T15:32:06.884Z,2.73
2022-12-05T15:34:51.613Z,2.74
2022-12-05T15:37:39.355Z,2.73
2022-12-05T15:40:13.087Z,2.72
2022-12-05T15:42:40.284Z,2.70
2022-12-05T15:45:13.257Z,2.69
2022-12-05T15:47:41.421Z,2.71
2022-12-05T15:50:37.360Z,2.73
2022-12-05T15:53:17.723Z,2.73
2022-12-05T15:55:44.740Z,2.71
2022-12-05T15:58:39.813Z,2.69
2022-12-05T16:01:15.933Z,2.66
2022-12-05T16:03:55.132Z,2.65
2022-12-05T16:06:45.804Z,2.66
2022-12-05T16:09:19.462Z,2.68
2022-12-05T16:12:16.377Z,2.69
2022-12-05T16:14:59.518Z,2.69
2022-12-05T16:17:37.203Z,2.67
2022-12-05T16:20:16.672Z,2.66
2022-12-05T16:22:54.827Z,2.66
2022-12-05T16:25:28.320Z,2.66
2022-12-05T16:28:00.650Z,2.66
2022-12-05T16:30:28.550Z,2.67
2022-12-05T16:33:05.256Z,2.66
2022-12-05T16:35:35.498Z,2.64
2022-12-05T16:38:10.803Z,2.63
2022-12-05T16:40:40.766Z,2.63
2022-12-05T16:43:31.130Z,2.65
2022-12-05T16:46:13.578Z,2.67
2022-12-05T16:48:46.981Z,2.68
2022-12-05T16:51:14.155Z,2.67
2022-12-05T16:53:49.743Z,2.68
2022-12-05T16:56:21.679Z,2.68
2022-12-05T16:58:48.904Z,2.70
2022-12-05T17:01:19.095Z,2.72
2022-12-05T17:03:46.407Z,2.73
2022-12-05T17:06:14.346Z,2.72
2022-12-05T17:08:42.333Z,2.71
2022-12-05T17:11:19.428Z,2.69
2022-12-05T17:13:48.154Z,2.67
2022-12-05T17:16:17.659Z,2.66
2022-12-05T17:18:45.104Z,2.67
2022-12-05T17:21:16.613Z,2.68
2022-12-05T17:23:47.900Z,2.68
2022-12-05T17:26:18.528Z,2.69
2022-12-05T17:28:46.058Z,2.69
2022-12-05T17:31:16.691Z,2.69
2022-12-05T17:33:45.511Z,2.70
2022-12-05T17:36:13.551Z,2.70
2022-12-05T17:38:41.251Z,2.71
2022-12-05T17:41:15.706Z,2.71
2022-12-05T17:43:43.513Z,2.71
2022-12-05T17:46:11.819Z,2.72
2022-12-05T17:48:39.089Z,2.71
2022-12-05T17:51:10.723Z,2.72
2022-12-05T17:53:38.444Z,2.74
2022-12-05T17:56:05.549Z,2.76
2022-12-05T17:58:53.232Z,2.80
2022-12-05T18:01:20.818Z,2.82
2022-12-05T18:03:48.963Z,2.84
2022-12-05T18:06:16.584Z,2.84
2022-12-05T18:08:44.780Z,2.84
2022-12-05T18:11:13.244Z,2.84
2022-12-05T18:13:40.307Z,2.84
2022-12-05T18:16:07.535Z,2.85
2022-12-05T18:18:34.549Z,2.87
2022-12-05T18:21:11.018Z,2.87
2022-12-05T18:23:39.741Z,2.87
2022-12-05T18:26:08.184Z,2.86
2022-12-05T18:28:36.803Z,2.87
2022-12-05T18:31:10.332Z,2.89
2022-12-05T18:33:37.918Z,2.91
2022-12-05T18:36:10.953Z,2.93
2022-12-05T18:38:38.617Z,2.95
2022-12-05T18:41:06.399Z,2.97
2022-12-05T18:43:33.976Z,2.97
2022-12-05T18:46:03.172Z,2.98
2022-12-05T18:48:39.380Z,2.97
2022-12-05T18:51:11.592Z,2.97
2022-12-05T18:53:39.367Z,2.99
2022-12-05T18:56:24.943Z,3.00
2022-12-05T18:58:54.076Z,3.00
2022-12-05T19:01:21.449Z,3.00
2022-12-05T19:03:48.590Z,2.98
2022-12-05T19:06:17.577Z,2.97
2022-12-05T19:08:45.523Z,2.98
2022-12-05T19:11:14.208Z,2.98
2022-12-05T19:13:41.426Z,2.98
2022-12-05T19:16:14.023Z,2.97
2022-12-05T19:18:41.186Z,2.97
2022-12-05T19:21:08.287Z,2.96
2022-12-05T19:23:35.294Z,2.96
2022-12-05T19:26:05.025Z,2.98
2022-12-05T19:28:36.872Z,3.00
2022-12-05T19:31:05.689Z,3.02
2022-12-05T19:33:38.588Z,3.01
2022-12-05T19:36:13.681Z,3.02
2022-12-05T19:38:42.467Z,3.00
2022-12-05T19:41:12.082Z,2.98
2022-12-05T19:43:39.851Z,2.97
2022-12-05T19:46:10.688Z,2.99
2022-12-05T19:48:38.098Z,3.00
2022-12-05T19:51:05.866Z,3.02
2022-12-05T19:53:36.438Z,3.02
2022-12-05T19:56:16.656Z,3.02
2022-12-05T19:58:44.876Z,3.01
2022-12-05T20:01:18.203Z,3.01
2022-12-05T20:03:50.834Z,3.02
2022-12-05T20:06:18.952Z,3.03
2022-12-05T20:08:47.047Z,3.04
2022-12-05T20:11:24.150Z,3.04
2022-12-05T20:13:54.188Z,3.03
2022-12-05T20:16:22.918Z,3.02
2022-12-05T20:18:50.205Z,3.00
2022-12-05T20:21:21.562Z,2.99
2022-12-05T20:23:49.801Z,3.00
2022-12-05T20:26:32.716Z,3.01
2022-12-05T20:29:06.204Z,3.00
2022-12-05T20:31:42.726Z,2.93
2022-12-05T20:34:12.951Z,2.98
2022-12-05T20:36:40.419Z,2.97
2022-12-05T20:39:12.156Z,2.96
2022-12-05T20:41:39.813Z,2.96
2022-12-05T20:44:08.136Z,2.97
2022-12-05T20:46:36.196Z,2.97
2022-12-05T20:49:03.541Z,2.99
2022-12-05T20:51:32.959Z,2.98
2022-12-05T20:54:01.637Z,2.98
2022-12-05T20:56:31.645Z,2.96
2022-12-05T20:59:01.762Z,2.96
2022-12-05T21:01:30.821Z,2.97
2022-12-05T21:03:58.685Z,2.98
2022-12-05T21:06:28.362Z,2.98
2022-12-05T21:08:56.053Z,2.97
2022-12-05T21:11:24.471Z,2.96
2022-12-05T21:13:55.392Z,2.94
2022-12-05T21:16:23.547Z,2.93
2022-12-05T21:18:51.473Z,2.94
2022-12-05T21:21:21.517Z,2.97
2022-12-05T21:23:53.998Z,2.99
2022-12-05T21:26:21.667Z,2.99
2022-12-05T21:28:48.688Z,2.99
2022-12-05T21:31:24.273Z,2.99
2022-12-05T21:33:54.141Z,2.98
2022-12-05T21:36:22.210Z,2.99
2022-12-05T21:38:54.121Z,3.00
2022-12-05T21:41:24.471Z,3.02
2022-12-05T21:43:55.078Z,3.01
2022-12-05T21:46:26.387Z,3.00
2022-12-05T21:48:54.437Z,2.99
2022-12-05T21:51:22.078Z,2.97
2022-12-05T21:53:49.476Z,2.97
2022-12-05T21:56:19.400Z,2.99
2022-12-05T21:58:46.736Z,2.99
2022-12-05T22:01:25.684Z,2.97
2022-12-05T22:03:56.767Z,2.97
2022-12-05T22:06:23.894Z,2.96
2022-12-05T22:08:51.020Z,2.95
2022-12-05T22:11:20.577Z,2.96
2022-12-05T22:13:48.471Z,2.97
2022-12-05T22:16:16.005Z,2.99
2022-12-05T22:18:43.534Z,2.99
2022-12-05T22:21:13.305Z,2.99
2022-12-05T22:23:40.572Z,2.98
2022-12-05T22:26:08.845Z,2.98
2022-12-05T22:28:36.615Z,3.00
2022-12-05T22:31:06.363Z,3.01
2022-12-05T22:33:45.194Z,3.02
2022-12-05T22:36:14.558Z,3.02
2022-12-05T22:38:44.059Z,3.02
2022-12-05T22:41:14.217Z,3.02
2022-12-05T22:43:45.950Z,3.01
2022-12-05T22:46:17.001Z,3.02
2022-12-05T22:48:44.921Z,3.05
2022-12-05T22:51:13.108Z,3.06
2022-12-05T22:53:40.084Z,3.05
2022-12-05T22:56:13.249Z,3.06
2022-12-05T22:58:44.631Z,3.05
2022-12-05T23:01:29.717Z,3.06
2022-12-05T23:04:06.104Z,3.08
2022-12-05T23:06:34.648Z,3.11
2022-12-05T23:09:03.736Z,3.12
2022-12-05T23:11:31.147Z,3.12
2022-12-05T23:14:02.325Z,3.12
2022-12-05T23:16:31.742Z,3.10
2022-12-05T23:19:00.941Z,3.09
2022-12-05T23:21:32.994Z,3.10
2022-12-05T23:24:03.062Z,3.13
2022-12-05T23:26:34.539Z,3.15
2022-12-05T23:29:01.848Z,3.17
2022-12-05T23:31:29.417Z,3.19
2022-12-05T23:34:02.659Z,3.19
2022-12-05T23:36:31.970Z,3.17
2022-12-05T23:38:59.002Z,3.18
2022-12-05T23:41:26.881Z,3.20
2022-12-05T23:43:54.224Z,3.23
2022-12-05T23:46:23.517Z,3.25
2022-12-05T23:48:51.443Z,3.27
2022-12-05T23:51:27.482Z,3.29
2022-12-05T23:53:57.179Z,3.28
2022-12-05T23:56:27.501Z,3.28
2022-12-05T23:58:55.500Z,3.27
